Time;durP1;ratioP1;P1;durP2;ratioP2;P2;SDS_P1;SDS_P2;PMS_P1;PMS_P2;Temp;Humidity;BMP_temperature;BMP_pressure;BME280_temperature;BME280_humidity;BME280_pressure;Samples;Min_cycle;Max_cycle;Signal;HPM_P1;HPM_P2
2023/04/24 00:00:14;;;;;;;0.93;0.80;;;;;;;;;;5043345;28;20026;-42
2023/04/24 00:02:40;;;;;;;2.80;0.95;;;;;;;;;;5043588;28;20477;-42
2023/04/24 00:05:07;;;;;;;0.88;0.63;;;;;;;;;;5043022;28;20025;-42
2023/04/24 00:07:33;;;;;;;0.95;0.85;;;;;;;;;;5042437;28;20127;-44
2023/04/24 00:09:58;;;;;;;2.03;1.00;;;;;;;;;;5041794;28;20140;-43
2023/04/24 00:12:25;;;;;;;0.95;0.95;;;;;;;;;;5042239;28;20037;-43
2023/04/24 00:14:50;;;;;;;2.35;1.38;;;;;;;;;;5043695;28;20083;-42
2023/04/24 00:17:19;;;;;;;3.45;1.20;;;;;;;;;;5039695;28;20045;-42
2023/04/24 00:19:45;;;;;;;1.08;0.95;;;;;;;;;;5044826;28;20029;-43
2023/04/24 00:22:10;;;;;;;2.05;1.00;;;;;;;;;;5041963;28;20037;-42
2023/04/24 00:24:36;;;;;;;2.55;1.10;;;;;;;;;;5048861;28;20120;-44
2023/04/24 00:27:02;;;;;;;6.43;1.42;;;;;;;;;;5043312;28;20049;-42
2023/04/24 00:29:28;;;;;;;2.42;1.58;;;;;;;;;;5046429;28;20051;-45
2023/04/24 00:31:53;;;;;;;1.63;1.30;;;;;;;;;;5045893;28;20048;-42
2023/04/24 00:34:19;;;;;;;2.33;1.30;;;;;;;;;;5044901;28;20405;-42
2023/04/24 00:36:45;;;;;;;6.60;1.38;;;;;;;;;;5046093;28;20045;-46
2023/04/24 00:39:10;;;;;;;1.67;1.20;;;;;;;;;;5047436;28;20041;-44
2023/04/24 00:41:36;;;;;;;1.02;1.02;;;;;;;;;;5047515;28;20039;-43
2023/04/24 00:44:01;;;;;;;5.60;2.40;;;;;;;;;;5042873;28;20089;-42
2023/04/24 00:46:26;;;;;;;1.25;1.20;;;;;;;;;;5044924;28;20059;-42
2023/04/24 00:48:52;;;;;;;1.60;1.17;;;;;;;;;;5047040;28;20021;-42
2023/04/24 00:51:18;;;;;;;2.30;1.42;;;;;;;;;;5047160;28;20175;-43
2023/04/24 00:53:44;;;;;;;3.72;1.30;;;;;;;;;;5046434;28;20029;-42
2023/04/24 00:56:09;;;;;;;2.65;1.67;;;;;;;;;;5045217;28;20519;-42
2023/04/24 00:58:35;;;;;;;4.00;1.30;;;;;;;;;;5045449;28;20033;-42
2023/04/24 01:01:02;;;;;;;3.75;1.55;;;;;;;;;;5044219;28;20041;-42
2023/04/24 01:03:31;;;;;;;2.35;1.17;;;;;;;;;;5044193;28;20477;-45
2023/04/24 01:05:57;;;;;;;2.50;1.17;;;;;;;;;;5044616;28;20045;-43
2023/04/24 01:08:24;;;;;;;2.88;1.33;;;;;;;;;;5043020;28;20026;-43
2023/04/24 01:10:52;;;;;;;3.63;1.48;;;;;;;;;;5043523;28;20056;-43
2023/04/24 01:13:18;;;;;;;2.85;1.50;;;;;;;;;;5048041;28;20484;-42
2023/04/24 01:15:44;;;;;;;7.40;1.70;;;;;;;;;;5043798;28;20045;-44
2023/04/24 01:18:09;;;;;;;4.75;1.95;;;;;;;;;;5044633;28;20504;-43
2023/04/24 01:20:39;;;;;;;1.08;0.93;;;;;;;;;;5045552;28;20029;-42
2023/04/24 01:23:05;;;;;;;2.42;1.13;;;;;;;;;;5042735;28;20977;-42
2023/04/24 01:25:31;;;;;;;2.38;1.33;;;;;;;;;;5045783;28;20044;-42
2023/04/24 01:27:57;;;;;;;3.97;1.20;;;;;;;;;;5046010;28;20028;-42
2023/04/24 01:30:22;;;;;;;1.25;1.15;;;;;;;;;;5044235;28;20032;-44
2023/04/24 01:32:48;;;;;;;1.25;1.13;;;;;;;;;;5044444;28;20147;-42
2023/04/24 01:35:14;;;;;;;1.52;1.42;;;;;;;;;;5044430;28;20091;-47
2023/04/24 01:37:39;;;;;;;5.65;1.23;;;;;;;;;;5046277;28;20037;-47
2023/04/24 01:40:06;;;;;;;2.90;1.30;;;;;;;;;;5042434;28;20083;-42
2023/04/24 01:42:32;;;;;;;4.03;1.10;;;;;;;;;;5041805;28;20410;-45
2023/04/24 01:44:57;;;;;;;2.35;1.25;;;;;;;;;;5047295;28;20025;-43
2023/04/24 01:47:23;;;;;;;2.40;1.10;;;;;;;;;;5046935;28;20398;-43
2023/04/24 01:49:50;;;;;;;1.60;1.02;;;;;;;;;;5043920;28;20079;-44
2023/04/24 01:52:17;;;;;;;2.97;1.25;;;;;;;;;;5046103;28;20043;-44
2023/04/24 01:54:43;;;;;;;2.65;1.33;;;;;;;;;;5044224;28;20389;-44
2023/04/24 01:57:08;;;;;;;1.55;1.30;;;;;;;;;;5042598;28;20038;-43
2023/04/24 01:59:36;;;;;;;2.40;1.50;;;;;;;;;;5046602;28;20497;-41
2023/04/24 02:02:02;;;;;;;1.85;1.10;;;;;;;;;;5046295;28;20417;-44
2023/04/24 02:04:27;;;;;;;3.40;1.40;;;;;;;;;;5043792;28;20470;-44
2023/04/24 02:06:53;;;;;;;1.35;1.10;;;;;;;;;;5042879;28;20045;-43
2023/04/24 02:09:18;;;;;;;2.35;1.27;;;;;;;;;;5045680;28;20037;-43
2023/04/24 02:11:44;;;;;;;3.20;1.40;;;;;;;;;;5045647;28;20233;-42
2023/04/24 02:14:09;;;;;;;5.32;1.60;;;;;;;;;;5046423;28;20029;-42
2023/04/24 02:16:35;;;;;;;3.35;1.60;;;;;;;;;;5038642;28;20507;-43
2023/04/24 02:19:01;;;;;;;3.28;1.50;;;;;;;;;;5043770;28;20515;-43
2023/04/24 02:21:27;;;;;;;5.53;1.50;;;;;;;;;;5046417;28;20037;-42
2023/04/24 02:23:53;;;;;;;1.50;1.40;;;;;;;;;;5045715;28;20032;-43
2023/04/24 02:26:19;;;;;;;2.17;1.40;;;;;;;;;;5042510;28;20037;-42
2023/04/24 02:28:44;;;;;;;3.15;1.80;;;;;;;;;;5042157;28;20090;-45
2023/04/24 02:31:09;;;;;;;3.42;1.30;;;;;;;;;;5038944;28;20524;-43
2023/04/24 02:33:35;;;;;;;2.15;1.20;;;;;;;;;;5042094;28;20028;-44
2023/04/24 02:36:02;;;;;;;4.68;1.98;;;;;;;;;;5044978;28;20049;-44
2023/04/24 02:38:27;;;;;;;1.92;1.63;;;;;;;;;;5041290;28;20029;-43
2023/04/24 02:40:52;;;;;;;3.28;1.50;;;;;;;;;;5040652;28;20040;-42
2023/04/24 02:43:18;;;;;;;2.22;1.55;;;;;;;;;;5044167;28;20028;-45
2023/04/24 02:45:43;;;;;;;2.95;1.83;;;;;;;;;;5041677;28;20072;-44
2023/04/24 02:48:09;;;;;;;3.05;1.75;;;;;;;;;;5043195;28;20025;-42
2023/04/24 02:50:34;;;;;;;3.88;2.05;;;;;;;;;;5042468;28;20090;-46
2023/04/24 02:53:00;;;;;;;3.63;1.67;;;;;;;;;;5042468;28;20021;-46
2023/04/24 02:55:25;;;;;;;1.83;1.52;;;;;;;;;;5042061;28;20032;-42
2023/04/24 02:57:50;;;;;;;4.88;2.28;;;;;;;;;;5043492;28;20041;-42
2023/04/24 03:00:16;;;;;;;5.07;1.88;;;;;;;;;;5042109;28;20017;-43
2023/04/24 03:02:42;;;;;;;9.20;2.00;;;;;;;;;;5040444;28;20021;-42
2023/04/24 03:05:07;;;;;;;3.60;1.60;;;;;;;;;;5043715;28;20040;-42
2023/04/24 03:07:33;;;;;;;3.53;1.60;;;;;;;;;;5043267;28;20135;-46
2023/04/24 03:09:59;;;;;;;2.65;1.80;;;;;;;;;;5044043;28;20036;-45
2023/04/24 03:12:25;;;;;;;3.15;1.77;;;;;;;;;;5042431;28;20033;-44
2023/04/24 03:14:50;;;;;;;4.70;1.77;;;;;;;;;;5044844;28;20049;-42
2023/04/24 03:17:16;;;;;;;1.88;1.60;;;;;;;;;;5042191;28;20175;-43
2023/04/24 03:19:41;;;;;;;3.97;1.83;;;;;;;;;;5043161;28;20021;-43
2023/04/24 03:22:08;;;;;;;3.60;1.95;;;;;;;;;;5042350;28;20052;-42
2023/04/24 03:24:34;;;;;;;5.85;1.50;;;;;;;;;;5041659;28;20028;-42
2023/04/24 03:27:00;;;;;;;3.72;1.52;;;;;;;;;;5041325;28;20044;-42
2023/04/24 03:29:25;;;;;;;6.45;1.90;;;;;;;;;;5042014;28;20106;-43
2023/04/24 03:31:50;;;;;;;1.60;1.50;;;;;;;;;;5042685;28;20425;-42
2023/04/24 03:34:16;;;;;;;2.15;1.58;;;;;;;;;;5045125;28;20029;-42
2023/04/24 03:36:41;;;;;;;2.38;1.30;;;;;;;;;;5039032;28;20400;-43
2023/04/24 03:39:07;;;;;;;3.00;1.70;;;;;;;;;;5042191;28;20064;-42
2023/04/24 03:41:32;;;;;;;2.30;1.70;;;;;;;;;;5043652;28;20045;-42
2023/04/24 03:43:58;;;;;;;2.15;1.75;;;;;;;;;;5043125;28;20033;-43
2023/04/24 03:46:23;;;;;;;4.93;1.40;;;;;;;;;;5043853;28;20146;-42
2023/04/24 03:48:49;;;;;;;3.90;1.50;;;;;;;;;;5043856;28;20025;-42
2023/04/24 03:51:14;;;;;;;2.10;1.50;;;;;;;;;;5040975;28;20033;-42
2023/04/24 03:53:40;;;;;;;3.08;1.77;;;;;;;;;;5042671;28;20037;-42
2023/04/24 03:56:05;;;;;;;3.85;1.63;;;;;;;;;;5040876;28;20655;-42
2023/04/24 03:58:31;;;;;;;3.47;1.58;;;;;;;;;;5045749;28;20135;-42
2023/04/24 04:00:57;;;;;;;3.05;1.70;;;;;;;;;;5048277;28;20029;-46
2023/04/24 04:03:23;;;;;;;3.50;1.33;;;;;;;;;;5043090;28;20025;-47
2023/04/24 04:05:48;;;;;;;1.73;1.42;;;;;;;;;;5046768;28;20456;-42
2023/04/24 04:08:14;;;;;;;3.92;1.80;;;;;;;;;;5042662;28;20466;-45
2023/04/24 04:10:39;;;;;;;2.78;1.70;;;;;;;;;;5049027;28;20033;-42
2023/04/24 04:13:06;;;;;;;4.32;1.83;;;;;;;;;;5043852;28;20087;-44
2023/04/24 04:15:31;;;;;;;1.38;1.33;;;;;;;;;;5042402;28;20088;-44
2023/04/24 04:17:57;;;;;;;4.80;1.75;;;;;;;;;;5048020;28;20057;-44
2023/04/24 04:20:22;;;;;;;1.98;1.70;;;;;;;;;;5044644;28;20021;-42
2023/04/24 04:22:47;;;;;;;2.13;1.70;;;;;;;;;;5046567;28;20560;-42
2023/04/24 04:25:13;;;;;;;5.32;2.00;;;;;;;;;;5047104;28;20036;-42
2023/04/24 04:27:39;;;;;;;2.70;1.85;;;;;;;;;;5045670;28;20478;-42
2023/04/24 04:30:05;;;;;;;2.35;1.50;;;;;;;;;;5049025;28;20497;-44
2023/04/24 04:32:34;;;;;;;4.20;1.80;;;;;;;;;;5047835;28;20120;-43
2023/04/24 04:35:03;;;;;;;5.25;1.58;;;;;;;;;;5049067;28;20021;-41
2023/04/24 04:37:29;;;;;;;5.22;1.83;;;;;;;;;;5046768;28;20065;-42
2023/04/24 04:39:55;;;;;;;1.83;1.50;;;;;;;;;;5046687;28;20025;-42
2023/04/24 04:42:20;;;;;;;4.22;2.25;;;;;;;;;;5044560;28;20493;-43
2023/04/24 04:44:46;;;;;;;4.43;1.60;;;;;;;;;;5046966;28;20040;-42
2023/04/24 04:47:11;;;;;;;1.90;1.60;;;;;;;;;;5047265;28;20045;-43
2023/04/24 04:49:38;;;;;;;5.65;1.73;;;;;;;;;;5046645;28;20781;-43
2023/04/24 04:52:04;;;;;;;2.95;1.70;;;;;;;;;;5045813;28;20041;-42
2023/04/24 04:54:29;;;;;;;4.65;1.83;;;;;;;;;;5047140;28;20079;-42
2023/04/24 04:56:55;;;;;;;2.70;1.65;;;;;;;;;;5044365;28;20126;-43
2023/04/24 04:59:20;;;;;;;4.20;1.88;;;;;;;;;;5045446;28;20037;-46
2023/04/24 05:01:46;;;;;;;3.63;1.75;;;;;;;;;;5046202;28;20176;-42
2023/04/24 05:04:11;;;;;;;2.45;1.92;;;;;;;;;;5044821;28;20032;-42
2023/04/24 05:06:37;;;;;;;4.55;1.77;;;;;;;;;;5041632;28;20489;-43
2023/04/24 05:09:03;;;;;;;2.08;1.70;;;;;;;;;;5044198;28;20029;-42
2023/04/24 05:11:29;;;;;;;2.58;1.55;;;;;;;;;;5043372;28;20128;-42
2023/04/24 05:13:55;;;;;;;4.45;2.38;;;;;;;;;;5045199;28;20107;-43
2023/04/24 05:16:20;;;;;;;7.85;2.03;;;;;;;;;;5044635;28;20475;-45
2023/04/24 05:18:46;;;;;;;7.07;2.03;;;;;;;;;;5044812;28;20082;-43
2023/04/24 05:21:11;;;;;;;5.47;1.85;;;;;;;;;;5048352;28;20033;-42
2023/04/24 05:23:37;;;;;;;3.45;1.60;;;;;;;;;;5045015;28;20112;-47
2023/04/24 05:26:02;;;;;;;3.30;1.48;;;;;;;;;;5042995;28;20497;-45
2023/04/24 05:28:28;;;;;;;5.63;1.95;;;;;;;;;;5044068;28;20129;-42
2023/04/24 05:30:56;;;;;;;6.25;1.88;;;;;;;;;;5049292;28;20071;-47
2023/04/24 05:33:22;;;;;;;4.40;1.77;;;;;;;;;;5044410;28;20075;-45
2023/04/24 05:35:48;;;;;;;3.95;2.05;;;;;;;;;;5046179;28;20398;-46
2023/04/24 05:38:14;;;;;;;4.68;1.90;;;;;;;;;;5042372;28;20470;-44
2023/04/24 05:40:39;;;;;;;6.53;2.15;;;;;;;;;;5038646;28;20816;-43
2023/04/24 05:43:05;;;;;;;6.80;2.00;;;;;;;;;;5040940;28;20060;-44
2023/04/24 05:45:31;;;;;;;3.38;1.83;;;;;;;;;;5043189;28;20048;-43
2023/04/24 05:47:56;;;;;;;4.65;1.80;;;;;;;;;;5043713;28;20112;-41
2023/04/24 05:50:22;;;;;;;5.30;1.95;;;;;;;;;;5044377;28;20104;-43
2023/04/24 05:52:47;;;;;;;6.03;2.03;;;;;;;;;;5043029;28;20028;-43
2023/04/24 05:55:13;;;;;;;5.88;1.67;;;;;;;;;;5044649;28;20420;-42
2023/04/24 05:57:39;;;;;;;5.95;1.92;;;;;;;;;;5044081;28;20037;-43
2023/04/24 06:00:05;;;;;;;9.75;2.03;;;;;;;;;;5040811;28;20025;-44
2023/04/24 06:02:32;;;;;;;8.43;2.00;;;;;;;;;;5038199;28;20037;-43
2023/04/24 06:04:59;;;;;;;6.10;2.20;;;;;;;;;;5041093;28;20501;-46
2023/04/24 06:07:26;;;;;;;12.38;1.98;;;;;;;;;;5039443;28;20053;-43
2023/04/24 06:09:51;;;;;;;6.72;1.85;;;;;;;;;;5043743;28;20041;-46
2023/04/24 06:12:17;;;;;;;6.78;1.70;;;;;;;;;;5044559;28;20040;-43
2023/04/24 06:14:42;;;;;;;5.63;1.50;;;;;;;;;;5043206;28;20060;-42
2023/04/24 06:17:08;;;;;;;11.45;1.83;;;;;;;;;;5045185;28;20048;-47
2023/04/24 06:19:33;;;;;;;5.40;1.23;;;;;;;;;;5042524;28;20112;-42
2023/04/24 06:21:59;;;;;;;6.22;2.13;;;;;;;;;;5045433;28;20171;-42
2023/04/24 06:24:27;;;;;;;4.72;1.92;;;;;;;;;;5043225;28;20478;-42
2023/04/24 06:26:52;;;;;;;5.22;1.77;;;;;;;;;;5040501;28;20037;-42
2023/04/24 06:29:18;;;;;;;5.13;2.08;;;;;;;;;;5042879;28;20027;-42
2023/04/24 06:31:43;;;;;;;5.90;1.65;;;;;;;;;;5044111;28;20045;-43
2023/04/24 06:34:09;;;;;;;6.10;2.10;;;;;;;;;;5044611;28;20029;-44
2023/04/24 06:36:35;;;;;;;8.52;1.67;;;;;;;;;;5044422;28;20044;-43
2023/04/24 06:39:01;;;;;;;5.53;1.83;;;;;;;;;;5044938;28;20580;-43
2023/04/24 06:41:26;;;;;;;3.78;1.65;;;;;;;;;;5042257;28;20072;-42
2023/04/24 06:43:52;;;;;;;5.95;1.52;;;;;;;;;;5043663;28;20029;-42
2023/04/24 06:46:17;;;;;;;5.57;1.88;;;;;;;;;;5043717;28;20576;-46
2023/04/24 06:48:43;;;;;;;6.18;2.17;;;;;;;;;;5041676;28;20029;-42
2023/04/24 06:51:09;;;;;;;9.02;1.67;;;;;;;;;;5045090;28;20049;-42
2023/04/24 06:53:34;;;;;;;5.15;1.60;;;;;;;;;;5044900;28;20032;-43
2023/04/24 06:56:00;;;;;;;4.07;1.63;;;;;;;;;;5044719;28;20490;-43
2023/04/24 06:58:25;;;;;;;14.43;2.03;;;;;;;;;;5042002;28;20029;-43
2023/04/24 07:00:51;;;;;;;5.18;1.30;;;;;;;;;;5044586;28;20409;-44
2023/04/24 07:03:16;;;;;;;7.97;1.50;;;;;;;;;;5046172;28;20478;-43
2023/04/24 07:05:42;;;;;;;5.85;1.50;;;;;;;;;;5043780;28;20041;-42
2023/04/24 07:08:08;;;;;;;5.13;2.00;;;;;;;;;;5044135;28;20032;-43
2023/04/24 07:10:35;;;;;;;9.52;2.15;;;;;;;;;;5041608;28;20095;-46
2023/04/24 07:13:01;;;;;;;5.78;1.50;;;;;;;;;;5043835;28;20112;-44
2023/04/24 07:15:26;;;;;;;12.07;1.77;;;;;;;;;;5037461;28;20045;-42
2023/04/24 07:17:52;;;;;;;7.70;1.52;;;;;;;;;;5044011;28;20033;-42
2023/04/24 07:20:17;;;;;;;5.28;1.75;;;;;;;;;;5041873;28;20052;-42
2023/04/24 07:22:43;;;;;;;4.28;1.48;;;;;;;;;;5044227;28;20060;-42
2023/04/24 07:25:08;;;;;;;5.63;2.00;;;;;;;;;;5042771;28;20086;-42
2023/04/24 07:27:34;;;;;;;5.57;1.40;;;;;;;;;;5044491;28;20043;-43
2023/04/24 07:30:00;;;;;;;2.72;1.35;;;;;;;;;;5045536;28;20053;-42
2023/04/24 07:32:26;;;;;;;4.63;1.20;;;;;;;;;;5039594;28;20580;-42
2023/04/24 07:34:51;;;;;;;2.72;1.20;;;;;;;;;;5041175;28;20029;-44
2023/04/24 07:37:16;;;;;;;6.40;1.55;;;;;;;;;;5043865;28;20109;-44
2023/04/24 07:39:42;;;;;;;3.50;1.60;;;;;;;;;;5044602;28;20116;-43
2023/04/24 07:42:07;;;;;;;4.53;1.40;;;;;;;;;;5041838;28;20156;-42
2023/04/24 07:44:33;;;;;;;4.53;1.50;;;;;;;;;;5046778;28;20067;-42
2023/04/24 07:46:58;;;;;;;3.53;1.40;;;;;;;;;;5042899;28;20086;-44
2023/04/24 07:49:24;;;;;;;2.72;1.02;;;;;;;;;;5045778;28;20109;-45
2023/04/24 07:51:50;;;;;;;8.18;1.40;;;;;;;;;;5038564;28;20485;-42
2023/04/24 07:54:15;;;;;;;5.40;1.23;;;;;;;;;;5043908;28;20029;-45
2023/04/24 07:56:42;;;;;;;6.43;1.20;;;;;;;;;;5042143;28;20040;-42
2023/04/24 07:59:09;;;;;;;5.05;1.38;;;;;;;;;;5042842;28;20481;-43
2023/04/24 08:01:35;;;;;;;6.40;1.33;;;;;;;;;;5042064;28;20048;-42
2023/04/24 08:04:00;;;;;;;3.38;1.60;;;;;;;;;;5041524;28;20036;-42
2023/04/24 08:06:29;;;;;;;2.45;1.00;;;;;;;;;;5041402;28;20563;-43
2023/04/24 08:08:58;;;;;;;4.00;1.30;;;;;;;;;;5035063;28;20053;-43
2023/04/24 08:11:24;;;;;;;3.15;1.25;;;;;;;;;;5040728;28;20037;-42
2023/04/24 08:13:50;;;;;;;7.18;1.38;;;;;;;;;;5042057;28;20049;-46
2023/04/24 08:16:15;;;;;;;6.22;1.20;;;;;;;;;;5041834;28;20689;-42
2023/04/24 08:18:41;;;;;;;3.17;1.40;;;;;;;;;;5045792;28;20371;-42
2023/04/24 08:21:06;;;;;;;7.35;1.10;;;;;;;;;;5041095;28;20049;-42
2023/04/24 08:23:31;;;;;;;4.88;1.00;;;;;;;;;;5038718;28;20021;-43
2023/04/24 08:25:57;;;;;;;3.75;1.23;;;;;;;;;;5043016;28;20120;-45
2023/04/24 08:28:23;;;;;;;6.78;1.48;;;;;;;;;;5045060;28;20086;-42
2023/04/24 08:30:54;;;;;;;3.10;1.15;;;;;;;;;;5043508;28;20052;-44
2023/04/24 08:33:19;;;;;;;2.95;1.27;;;;;;;;;;5041685;28;20519;-43
2023/04/24 08:35:45;;;;;;;4.43;1.23;;;;;;;;;;5042184;28;20038;-42
2023/04/24 08:38:10;;;;;;;5.15;1.30;;;;;;;;;;5040466;28;20075;-43
2023/04/24 08:40:36;;;;;;;4.10;1.30;;;;;;;;;;5040710;28;20144;-43
2023/04/24 08:43:03;;;;;;;2.78;1.20;;;;;;;;;;5043655;28;20032;-42
2023/04/24 08:45:29;;;;;;;3.30;1.00;;;;;;;;;;5046930;28;20143;-43
2023/04/24 08:47:55;;;;;;;4.70;1.10;;;;;;;;;;5045188;28;20749;-46
2023/04/24 08:50:21;;;;;;;3.83;1.45;;;;;;;;;;5046243;28;20033;-43
2023/04/24 08:52:49;;;;;;;2.85;1.10;;;;;;;;;;5045819;28;20024;-43
2023/04/24 08:55:16;;;;;;;2.47;1.33;;;;;;;;;;5045490;28;20028;-43
2023/04/24 08:57:44;;;;;;;1.58;0.80;;;;;;;;;;5043447;28;20028;-42
2023/04/24 09:00:11;;;;;;;2.50;1.17;;;;;;;;;;5047662;28;20552;-42
2023/04/24 09:02:36;;;;;;;1.48;0.93;;;;;;;;;;5046283;28;20056;-44
2023/04/24 09:05:03;;;;;;;5.78;1.05;;;;;;;;;;5043687;28;20081;-46
2023/04/24 09:07:32;;;;;;;5.28;1.58;;;;;;;;;;5043250;28;20111;-43
2023/04/24 09:09:59;;;;;;;7.03;1.50;;;;;;;;;;5044666;28;20090;-43
2023/04/24 09:12:24;;;;;;;1.80;1.10;;;;;;;;;;5044297;28;20044;-42
2023/04/24 09:14:51;;;;;;;5.95;1.30;;;;;;;;;;5048598;28;20037;-44
2023/04/24 09:17:16;;;;;;;3.60;1.38;;;;;;;;;;5042794;28;20044;-43
2023/04/24 09:19:41;;;;;;;4.72;0.93;;;;;;;;;;5045123;28;20090;-43
2023/04/24 09:22:09;;;;;;;3.40;1.15;;;;;;;;;;5047029;28;20069;-44
2023/04/24 09:24:35;;;;;;;4.10;0.90;;;;;;;;;;5045713;28;20401;-42
2023/04/24 09:27:03;;;;;;;2.15;1.10;;;;;;;;;;5046692;28;20037;-42
2023/04/24 09:29:29;;;;;;;4.50;1.00;;;;;;;;;;5045966;28;20037;-43
2023/04/24 09:31:55;;;;;;;4.88;1.00;;;;;;;;;;5044734;28;20052;-42
2023/04/24 09:34:27;;;;;;;4.78;1.10;;;;;;;;;;5046659;28;20033;-41
2023/04/24 09:36:52;;;;;;;;;;;;;;;;;;5045144;28;20061;-42
2023/04/24 09:39:21;;;;;;;6.90;0.88;;;;;;;;;;5045617;28;20410;-42
2023/04/24 09:41:56;;;;;;;7.60;0.85;;;;;;;;;;5045879;28;20045;-44
2023/04/24 09:44:24;;;;;;;0.82;0.60;;;;;;;;;;5043617;28;20037;-43
2023/04/24 09:46:58;;;;;;;2.15;0.80;;;;;;;;;;5047745;28;20045;-42
2023/04/24 09:49:28;;;;;;;2.80;0.63;;;;;;;;;;5047698;28;20025;-42
2023/04/24 09:52:04;;;;;;;4.65;0.80;;;;;;;;;;5045368;28;20037;-42
2023/04/24 09:54:29;;;;;;;1.67;0.60;;;;;;;;;;5046416;28;20745;-42
2023/04/24 09:56:55;;;;;;;2.50;0.60;;;;;;;;;;5045442;28;20048;-42
2023/04/24 09:59:22;;;;;;;1.90;0.82;;;;;;;;;;5045147;28;20086;-43
2023/04/24 10:01:49;;;;;;;2.72;0.80;;;;;;;;;;5040178;28;20087;-43
2023/04/24 10:04:21;;;;;;;3.80;0.95;;;;;;;;;;5046171;28;20037;-43
2023/04/24 10:06:48;;;;;;;2.97;0.90;;;;;;;;;;5042423;28;20053;-42
2023/04/24 10:09:15;;;;;;;1.30;0.73;;;;;;;;;;5045888;28;20033;-42
2023/04/24 10:11:43;;;;;;;1.45;0.88;;;;;;;;;;5045853;28;20037;-42
2023/04/24 10:14:11;;;;;;;1.83;0.80;;;;;;;;;;5044613;28;20041;-42
2023/04/24 10:16:39;;;;;;;3.33;0.95;;;;;;;;;;5042338;28;20037;-42
2023/04/24 10:19:04;;;;;;;1.80;0.80;;;;;;;;;;5042822;28;20413;-48
2023/04/24 10:21:30;;;;;;;1.30;0.65;;;;;;;;;;5043051;28;20496;-46
2023/04/24 10:23:56;;;;;;;1.75;0.60;;;;;;;;;;5044658;28;20095;-44
2023/04/24 10:26:22;;;;;;;1.15;0.63;;;;;;;;;;5044911;28;20146;-43
2023/04/24 10:28:48;;;;;;;0.57;0.57;;;;;;;;;;5042123;28;20025;-43
2023/04/24 10:31:14;;;;;;;3.22;1.13;;;;;;;;;;5041616;28;20036;-44
2023/04/24 10:33:45;;;;;;;1.00;0.73;;;;;;;;;;5039203;28;20076;-41
2023/04/24 10:36:12;;;;;;;3.83;0.82;;;;;;;;;;5043734;28;20033;-42
2023/04/24 10:38:41;;;;;;;1.73;0.70;;;;;;;;;;5039309;28;20040;-44
2023/04/24 10:41:09;;;;;;;1.52;0.60;;;;;;;;;;5034912;28;20103;-43
2023/04/24 10:43:35;;;;;;;2.40;0.70;;;;;;;;;;5042151;28;20094;-44
2023/04/24 10:46:02;;;;;;;1.10;0.68;;;;;;;;;;5041817;28;20044;-43
2023/04/24 10:48:28;;;;;;;0.95;0.68;;;;;;;;;;5040827;28;20016;-43
2023/04/24 10:50:53;;;;;;;1.67;1.02;;;;;;;;;;5039641;28;20390;-43
2023/04/24 10:53:20;;;;;;;1.85;0.60;;;;;;;;;;5038957;28;20052;-45
2023/04/24 10:55:48;;;;;;;1.30;0.68;;;;;;;;;;5045197;28;20040;-42
2023/04/24 10:58:16;;;;;;;1.65;1.20;;;;;;;;;;5040447;28;20470;-42
2023/04/24 11:00:43;;;;;;;1.63;0.60;;;;;;;;;;5043891;28;20426;-43
2023/04/24 11:03:30;;;;;;;1.52;0.90;;;;;;;;;;5043812;28;20035;-44
2023/04/24 11:06:06;;;;;;;1.15;1.00;;;;;;;;;;5037903;28;20059;-44
2023/04/24 11:08:58;;;;;;;1.48;1.00;;;;;;;;;;5040465;28;20029;-41
2023/04/24 11:11:29;;;;;;;1.45;0.90;;;;;;;;;;5040876;28;20045;-41
2023/04/24 11:13:54;;;;;;;1.48;1.05;;;;;;;;;;5041871;28;20369;-42
2023/04/24 11:16:53;;;;;;;2.63;1.25;;;;;;;;;;5030697;28;20033;-41
2023/04/24 11:19:26;;;;;;;1.27;1.00;;;;;;;;;;4940406;28;20043;-41
2023/04/24 11:22:02;;;;;;;1.17;1.10;;;;;;;;;;4957502;28;20044;-42
2023/04/24 11:24:40;;;;;;;3.47;1.25;;;;;;;;;;4962579;28;20105;-42
2023/04/24 11:27:16;;;;;;;1.17;1.08;;;;;;;;;;4963193;28;20077;-46
2023/04/24 11:29:57;;;;;;;1.10;0.98;;;;;;;;;;4963382;28;20042;-42
2023/04/24 11:32:37;;;;;;;2.03;1.27;;;;;;;;;;4959497;28;20046;-46
2023/04/24 11:35:09;;;;;;;4.15;1.20;;;;;;;;;;4963549;28;20070;-41
2023/04/24 11:37:40;;;;;;;4.15;1.33;;;;;;;;;;4961936;28;20043;-45
2023/04/24 11:40:08;;;;;;;1.88;1.05;;;;;;;;;;4962820;28;20038;-41
2023/04/24 11:42:55;;;;;;;5.35;1.20;;;;;;;;;;4962747;28;20047;-44
2023/04/24 11:45:28;;;;;;;3.60;1.05;;;;;;;;;;4964891;28;20488;-42
2023/04/24 11:47:53;;;;;;;1.75;1.00;;;;;;;;;;4964608;28;20059;-44
2023/04/24 11:50:22;;;;;;;1.50;0.85;;;;;;;;;;4963621;28;20407;-44
2023/04/24 11:52:49;;;;;;;1.52;0.82;;;;;;;;;;4965174;28;20042;-45
2023/04/24 11:55:15;;;;;;;2.50;0.90;;;;;;;;;;5010851;28;20032;-42
2023/04/24 11:57:45;;;;;;;1.70;0.98;;;;;;;;;;5043662;28;20037;-42
2023/04/24 12:00:19;;;;;;;4.00;1.25;;;;;;;;;;5039887;28;20036;-41
2023/04/24 12:02:45;;;;;;;1.05;0.95;;;;;;;;;;5043742;28;20034;-43
2023/04/24 12:05:39;;;;;;;2.35;1.05;;;;;;;;;;5043299;28;20417;-46
2023/04/24 12:08:05;;;;;;;1.10;0.90;;;;;;;;;;5031983;28;20033;-42
2023/04/24 12:10:32;;;;;;;1.58;1.23;;;;;;;;;;5041897;28;23117;-42
2023/04/24 12:12:58;;;;;;;3.03;0.90;;;;;;;;;;5040275;28;20517;-43
2023/04/24 12:15:25;;;;;;;2.92;0.82;;;;;;;;;;5041094;28;20045;-48
2023/04/24 12:17:51;;;;;;;1.52;0.90;;;;;;;;;;5038378;28;20119;-41
2023/04/24 12:20:16;;;;;;;2.00;0.88;;;;;;;;;;5046957;28;20060;-42
2023/04/24 12:22:46;;;;;;;2.75;1.02;;;;;;;;;;5047291;28;20075;-41
2023/04/24 12:25:12;;;;;;;1.65;0.75;;;;;;;;;;5046606;28;20507;-41
2023/04/24 12:27:37;;;;;;;0.70;0.70;;;;;;;;;;5048664;28;20023;-44
2023/04/24 12:30:05;;;;;;;1.05;0.75;;;;;;;;;;5048208;28;20074;-42
2023/04/24 12:32:31;;;;;;;2.85;0.90;;;;;;;;;;5047019;28;20124;-42
2023/04/24 12:34:56;;;;;;;1.95;0.88;;;;;;;;;;5044020;28;20526;-47
2023/04/24 12:37:26;;;;;;;1.58;0.70;;;;;;;;;;5046818;28;20817;-45
2023/04/24 12:40:18;;;;;;;3.30;0.82;;;;;;;;;;5048014;28;20048;-42
2023/04/24 12:42:46;;;;;;;1.33;0.90;;;;;;;;;;5041818;28;21553;-45
2023/04/24 12:45:12;;;;;;;3.53;0.90;;;;;;;;;;5045181;28;20028;-44
2023/04/24 12:47:39;;;;;;;0.80;0.80;;;;;;;;;;5046190;28;20263;-41
2023/04/24 12:50:05;;;;;;;0.98;0.80;;;;;;;;;;5046756;28;20041;-43
2023/04/24 12:52:31;;;;;;;1.08;0.98;;;;;;;;;;5047586;28;20025;-42
2023/04/24 12:54:58;;;;;;;2.58;0.65;;;;;;;;;;5044495;28;20102;-44
2023/04/24 12:57:25;;;;;;;2.53;0.68;;;;;;;;;;5043228;28;20045;-42
2023/04/24 12:59:55;;;;;;;0.95;0.68;;;;;;;;;;5044491;28;20029;-41
2023/04/24 13:02:22;;;;;;;1.23;0.60;;;;;;;;;;5047451;28;20140;-44
2023/04/24 13:04:47;;;;;;;1.80;0.80;;;;;;;;;;5046717;28;20021;-44
2023/04/24 13:07:14;;;;;;;2.15;0.60;;;;;;;;;;5042995;28;20095;-47
2023/04/24 13:09:40;;;;;;;1.35;0.50;;;;;;;;;;5045272;28;20025;-42
2023/04/24 13:12:06;;;;;;;3.13;0.60;;;;;;;;;;5043941;28;20831;-43
2023/04/24 13:14:32;;;;;;;0.88;0.65;;;;;;;;;;5046169;28;20042;-42
2023/04/24 13:16:58;;;;;;;0.70;0.38;;;;;;;;;;5045949;28;20037;-45
2023/04/24 13:19:27;;;;;;;1.23;0.68;;;;;;;;;;5044489;28;20033;-41
2023/04/24 13:21:56;;;;;;;6.85;0.85;;;;;;;;;;5043888;28;20143;-44
2023/04/24 13:24:24;;;;;;;2.92;0.52;;;;;;;;;;5043417;28;20029;-42
2023/04/24 13:26:50;;;;;;;1.08;0.52;;;;;;;;;;5045877;28;20134;-43
2023/04/24 13:29:15;;;;;;;0.45;0.45;;;;;;;;;;5043495;28;20030;-44
2023/04/24 13:31:41;;;;;;;3.80;1.65;;;;;;;;;;5045833;28;20068;-44
2023/04/24 13:34:07;;;;;;;4.90;0.75;;;;;;;;;;5043729;28;20044;-41
2023/04/24 13:36:32;;;;;;;1.50;0.93;;;;;;;;;;5044475;28;20425;-45
2023/04/24 13:38:58;;;;;;;1.20;0.80;;;;;;;;;;5045771;28;20041;-42
2023/04/24 13:41:23;;;;;;;1.00;0.50;;;;;;;;;;5033856;28;20046;-42
2023/04/24 13:43:48;;;;;;;1.17;0.63;;;;;;;;;;5025102;28;20033;-45
2023/04/24 13:46:14;;;;;;;1.27;0.75;;;;;;;;;;5025223;28;20090;-45
2023/04/24 13:48:40;;;;;;;6.13;0.70;;;;;;;;;;5025492;28;20398;-47
2023/04/24 13:51:05;;;;;;;2.85;0.47;;;;;;;;;;5025393;28;20052;-48
2023/04/24 13:53:32;;;;;;;1.85;0.68;;;;;;;;;;5025130;28;20087;-42
2023/04/24 13:55:57;;;;;;;1.70;0.90;;;;;;;;;;5024838;28;20964;-48
2023/04/24 13:58:23;;;;;;;2.65;0.70;;;;;;;;;;5018399;28;20111;-44
2023/04/24 14:00:48;;;;;;;2.22;0.93;;;;;;;;;;5025424;28;20079;-47
2023/04/24 14:03:13;;;;;;;1.88;0.90;;;;;;;;;;5026096;28;20108;-43
2023/04/24 14:05:39;;;;;;;1.63;0.82;;;;;;;;;;5025345;28;20052;-46
2023/04/24 14:08:04;;;;;;;1.27;0.50;;;;;;;;;;5026179;28;20471;-43
2023/04/24 14:10:30;;;;;;;0.85;0.55;;;;;;;;;;5024119;28;20076;-44
2023/04/24 14:12:55;;;;;;;1.77;0.68;;;;;;;;;;5024687;28;20119;-48
2023/04/24 14:15:21;;;;;;;1.73;0.55;;;;;;;;;;5026351;28;20056;-41
2023/04/24 14:17:46;;;;;;;0.77;0.77;;;;;;;;;;5022716;28;20033;-45
2023/04/24 14:20:12;;;;;;;0.90;0.80;;;;;;;;;;5023596;28;20025;-43
2023/04/24 14:22:37;;;;;;;0.60;0.60;;;;;;;;;;5023519;28;23233;-46
2023/04/24 14:25:05;;;;;;;1.73;0.60;;;;;;;;;;5020245;28;20029;-45
2023/04/24 14:27:31;;;;;;;0.95;0.70;;;;;;;;;;5021593;28;20045;-47
2023/04/24 14:29:57;;;;;;;0.82;0.63;;;;;;;;;;5024287;28;20041;-43
2023/04/24 14:32:22;;;;;;;4.05;0.75;;;;;;;;;;5023758;28;20046;-43
2023/04/24 14:34:48;;;;;;;1.05;0.70;;;;;;;;;;5022540;28;20112;-41
2023/04/24 14:37:13;;;;;;;1.10;0.70;;;;;;;;;;5027373;28;20044;-43
2023/04/24 14:39:38;;;;;;;1.33;0.65;;;;;;;;;;5021203;28;20421;-42